createdAt,value
2018-12-18T00:00:48.815Z,54.53
2018-12-18T00:01:54.558Z,54.97
2018-12-18T00:03:00.034Z,58.20
2018-12-18T00:04:05.518Z,60.40
2018-12-18T00:05:16.242Z,55.57
2018-12-18T00:06:21.718Z,55.80
2018-12-18T00:07:27.300Z,53.90
2018-12-18T00:08:32.872Z,56.25
2018-12-18T00:09:38.478Z,54.30
2018-12-18T00:12:07.799Z,55.98
2018-12-18T00:13:13.304Z,56.80
2018-12-18T00:14:18.867Z,55.03
2018-12-18T00:15:24.420Z,57.03
2018-12-18T00:17:46.135Z,56.47
2018-12-18T00:18:51.571Z,53.90
2018-12-18T00:19:57.028Z,59.00
2018-12-18T00:21:02.482Z,58.48
2018-12-18T00:22:09.195Z,53.43
2018-12-18T00:23:14.664Z,57.40
2018-12-18T00:24:20.185Z,57.70
2018-12-18T00:25:25.622Z,54.27
2018-12-18T00:26:31.114Z,55.87
2018-12-18T00:27:36.676Z,59.27
2018-12-18T00:28:42.286Z,58.07
2018-12-18T00:29:47.786Z,60.20
2018-12-18T00:30:53.415Z,55.20
2018-12-18T00:31:58.900Z,56.50
2018-12-18T00:33:04.636Z,58.10
2018-12-18T00:34:10.218Z,58.67
2018-12-18T00:35:15.723Z,61.27
2018-12-18T00:36:21.180Z,58.47
2018-12-18T00:37:26.616Z,58.13
2018-12-18T00:38:32.152Z,58.17
2018-12-18T00:39:37.575Z,58.90
2018-12-18T00:40:43.204Z,61.67
2018-12-18T00:41:48.674Z,57.23
2018-12-18T00:42:54.187Z,57.63
2018-12-18T00:43:59.638Z,57.10
2018-12-18T00:45:05.843Z,58.03
2018-12-18T00:46:11.595Z,58.90
2018-12-18T00:47:17.098Z,57.57
2018-12-18T00:48:22.727Z,57.13
2018-12-18T00:49:28.263Z,55.90
2018-12-18T00:50:34.003Z,55.37
2018-12-18T00:51:39.431Z,56.70
2018-12-18T00:52:44.971Z,57.20
2018-12-18T00:53:50.526Z,55.90
2018-12-18T00:54:56.164Z,57.97
2018-12-18T00:56:01.614Z,58.57
2018-12-18T00:57:07.087Z,54.27
2018-12-18T00:58:12.527Z,59.17
2018-12-18T00:59:17.939Z,56.87
2018-12-18T01:00:23.651Z,58.90
2018-12-18T01:01:29.050Z,55.83
2018-12-18T01:02:34.623Z,57.08
2018-12-18T01:03:40.210Z,60.07
2018-12-18T01:04:47.452Z,57.93
2018-12-18T01:05:52.973Z,56.97
2018-12-18T01:06:58.475Z,57.40
2018-12-18T01:08:04.395Z,59.33
2018-12-18T01:09:09.951Z,56.07
2018-12-18T01:10:15.522Z,57.63
2018-12-18T01:11:21.164Z,59.33
2018-12-18T01:12:26.690Z,56.70
2018-12-18T01:13:32.538Z,53.70
2018-12-18T01:14:37.987Z,56.80
2018-12-18T01:15:43.465Z,57.70
2018-12-18T01:16:48.955Z,54.63
2018-12-18T01:17:54.406Z,61.73
2018-12-18T01:18:59.875Z,60.23
2018-12-18T01:20:05.603Z,57.97
2018-12-18T01:21:11.270Z,54.70
2018-12-18T01:22:16.803Z,57.47
2018-12-18T01:23:22.445Z,59.37
2018-12-18T01:24:28.080Z,63.17
2018-12-18T01:25:33.697Z,57.20
2018-12-18T01:26:39.248Z,55.77
2018-12-18T01:27:44.897Z,56.80
2018-12-18T01:28:50.484Z,55.53
2018-12-18T01:29:55.899Z,58.33
2018-12-18T01:31:01.636Z,56.90
2018-12-18T01:32:07.214Z,54.70
2018-12-18T01:33:12.735Z,51.40
2018-12-18T01:34:18.171Z,51.00
2018-12-18T01:35:23.812Z,53.33
2018-12-18T01:36:29.387Z,52.90
2018-12-18T01:37:34.933Z,52.13
2018-12-18T01:38:40.559Z,52.40
2018-12-18T01:39:46.062Z,55.00
2018-12-18T01:40:51.502Z,53.33
2018-12-18T01:41:57.056Z,53.07
2018-12-18T01:43:02.503Z,52.10
2018-12-18T01:44:07.927Z,53.10
2018-12-18T01:45:13.439Z,51.47
2018-12-18T01:46:18.913Z,50.43
2018-12-18T01:47:24.383Z,52.70
2018-12-18T01:48:29.878Z,52.20
2018-12-18T01:49:35.355Z,52.23
2018-12-18T01:50:40.945Z,52.43
2018-12-18T01:51:46.488Z,52.80
2018-12-18T01:52:51.887Z,53.97
2018-12-18T01:53:57.494Z,54.17
2018-12-18T01:55:06.074Z,51.47
2018-12-18T01:56:11.758Z,51.60
2018-12-18T01:57:17.266Z,55.78
2018-12-18T01:58:22.865Z,52.70
2018-12-18T01:59:28.468Z,53.17
2018-12-18T02:00:33.941Z,51.80
2018-12-18T02:01:39.490Z,52.10
2018-12-18T02:02:45.014Z,56.30
2018-12-18T02:03:50.450Z,51.50
2018-12-18T02:04:55.866Z,51.17
2018-12-18T02:06:01.443Z,51.67
2018-12-18T02:07:07.005Z,53.67
2018-12-18T02:08:12.511Z,55.27
2018-12-18T02:09:17.951Z,54.10
2018-12-18T02:10:23.584Z,51.67
2018-12-18T02:11:29.116Z,52.70
2018-12-18T02:12:34.565Z,53.07
2018-12-18T02:13:40.057Z,51.33
2018-12-18T02:14:45.455Z,55.37
2018-12-18T02:15:50.899Z,51.73
2018-12-18T02:16:56.335Z,54.37
2018-12-18T02:18:01.971Z,53.37
2018-12-18T02:19:07.407Z,52.40
2018-12-18T02:20:12.874Z,53.28
2018-12-18T02:21:18.440Z,53.83
2018-12-18T02:22:24.008Z,55.30
2018-12-18T02:23:29.532Z,54.80
2018-12-18T02:24:34.973Z,53.80
2018-12-18T02:25:40.566Z,53.60
2018-12-18T02:26:46.000Z,52.97
2018-12-18T02:27:51.571Z,53.40
2018-12-18T02:28:57.031Z,50.80
2018-12-18T02:30:02.576Z,50.63
2018-12-18T02:31:08.072Z,51.77
2018-12-18T02:32:13.528Z,50.20
2018-12-18T02:33:19.087Z,49.37
2018-12-18T02:34:24.795Z,47.53
2018-12-18T02:35:30.203Z,49.43
2018-12-18T02:36:35.670Z,50.50
2018-12-18T02:37:41.060Z,49.37
2018-12-18T02:38:46.507Z,45.90
2018-12-18T02:39:52.255Z,45.17
2018-12-18T02:40:57.764Z,44.80
2018-12-18T02:42:03.300Z,45.57
2018-12-18T02:43:08.732Z,43.77
2018-12-18T02:44:14.220Z,43.67
2018-12-18T02:45:19.999Z,43.63
2018-12-18T02:46:25.547Z,42.47
2018-12-18T02:47:31.083Z,42.63
2018-12-18T02:48:36.682Z,46.50
2018-12-18T02:49:42.183Z,43.45
2018-12-18T02:50:47.647Z,41.77
2018-12-18T02:51:53.247Z,42.83
2018-12-18T02:52:58.706Z,39.83
2018-12-18T02:54:04.164Z,42.40
2018-12-18T02:55:09.700Z,37.70
2018-12-18T02:56:15.154Z,42.97
2018-12-18T02:57:20.658Z,40.40
2018-12-18T02:58:26.260Z,40.13
2018-12-18T02:59:31.838Z,43.80
2018-12-18T03:00:37.336Z,42.40
2018-12-18T03:01:42.752Z,40.40
2018-12-18T03:02:48.174Z,41.40
2018-12-18T03:03:53.659Z,42.23
2018-12-18T03:04:59.191Z,41.40
2018-12-18T03:06:04.705Z,42.67
2018-12-18T03:07:10.334Z,39.80
2018-12-18T03:08:15.808Z,38.13
2018-12-18T03:09:21.406Z,38.47
2018-12-18T03:10:26.877Z,37.80
2018-12-18T03:11:32.287Z,37.57
2018-12-18T03:12:37.752Z,39.00
2018-12-18T03:13:43.194Z,35.50
2018-12-18T03:14:48.654Z,39.53
2018-12-18T03:15:54.075Z,40.30
2018-12-18T03:16:59.613Z,40.60
2018-12-18T03:18:05.289Z,36.30
2018-12-18T03:19:10.837Z,38.20
2018-12-18T03:20:16.515Z,35.63
2018-12-18T03:21:21.927Z,37.23
2018-12-18T03:22:27.424Z,36.90
2018-12-18T03:23:32.839Z,36.73
2018-12-18T03:24:38.342Z,34.80
2018-12-18T03:25:44.033Z,36.13
2018-12-18T03:26:49.497Z,35.87
2018-12-18T03:27:54.902Z,35.30
2018-12-18T03:29:00.694Z,38.33
2018-12-18T03:30:06.962Z,35.90
2018-12-18T03:31:12.572Z,35.80
2018-12-18T03:33:40.007Z,35.93
2018-12-18T03:34:45.556Z,36.80
2018-12-18T03:35:51.012Z,35.93
2018-12-18T03:36:56.656Z,35.13
2018-12-18T03:38:02.191Z,36.97
2018-12-18T03:39:08.306Z,35.17
2018-12-18T03:40:14.745Z,34.43
2018-12-18T03:41:20.358Z,36.33
2018-12-18T03:42:25.870Z,34.10
2018-12-18T03:43:31.295Z,35.83
2018-12-18T03:44:36.802Z,35.07
2018-12-18T03:45:42.308Z,36.83
2018-12-18T03:46:47.801Z,35.43
2018-12-18T03:47:53.262Z,35.67
2018-12-18T03:48:58.753Z,33.60
2018-12-18T03:50:05.330Z,35.20
2018-12-18T03:51:10.857Z,32.00
2018-12-18T03:52:16.556Z,34.50
2018-12-18T03:53:22.150Z,35.10
2018-12-18T03:54:27.792Z,34.77
2018-12-18T03:55:33.439Z,34.10
2018-12-18T03:56:38.892Z,35.17
2018-12-18T03:57:44.476Z,35.53
2018-12-18T03:58:49.967Z,35.10
2018-12-18T03:59:55.445Z,32.27
2018-12-18T04:01:01.039Z,34.23
2018-12-18T04:02:06.489Z,34.80
2018-12-18T04:03:12.280Z,32.80
2018-12-18T04:04:17.996Z,33.53
2018-12-18T04:05:23.526Z,32.73
2018-12-18T04:06:29.166Z,31.80
2018-12-18T04:07:34.569Z,34.23
2018-12-18T04:08:40.240Z,32.30
2018-12-18T04:09:45.802Z,33.10
2018-12-18T04:10:51.318Z,34.30
2018-12-18T04:12:02.030Z,29.30
2018-12-18T04:13:07.546Z,31.13
2018-12-18T04:14:13.172Z,30.13
2018-12-18T04:15:18.679Z,32.43
2018-12-18T04:16:25.488Z,30.73
2018-12-18T04:17:31.167Z,33.53
2018-12-18T04:18:36.829Z,30.00
2018-12-18T04:19:42.467Z,28.53
2018-12-18T04:20:48.090Z,31.30
2018-12-18T04:21:53.539Z,29.53
2018-12-18T04:22:58.938Z,31.17
2018-12-18T04:24:04.368Z,29.83
2018-12-18T04:25:09.976Z,31.53
2018-12-18T04:26:15.444Z,30.63
2018-12-18T04:27:20.877Z,30.47
2018-12-18T04:28:26.274Z,30.63
2018-12-18T04:29:31.856Z,30.33
2018-12-18T04:30:37.343Z,27.93
2018-12-18T04:31:42.758Z,30.20
2018-12-18T04:32:48.493Z,27.40
2018-12-18T04:33:53.943Z,27.33
2018-12-18T04:34:59.463Z,26.70
2018-12-18T04:36:04.914Z,27.90
2018-12-18T04:37:10.359Z,25.50
2018-12-18T04:38:15.791Z,29.10
2018-12-18T04:39:21.643Z,26.17
2018-12-18T04:40:27.119Z,26.83
2018-12-18T04:41:32.942Z,26.47
2018-12-18T04:42:38.478Z,27.60
2018-12-18T04:43:43.925Z,25.60
2018-12-18T04:44:49.412Z,25.35
2018-12-18T04:45:55.209Z,26.53
2018-12-18T04:47:00.737Z,25.67
2018-12-18T04:48:06.175Z,27.30
2018-12-18T04:49:11.956Z,25.80
2018-12-18T04:50:17.859Z,25.50
2018-12-18T04:51:23.315Z,25.00
2018-12-18T04:52:28.798Z,25.27
2018-12-18T04:53:34.569Z,24.67
2018-12-18T04:54:40.211Z,24.47
2018-12-18T04:55:45.844Z,24.30
2018-12-18T04:56:51.334Z,24.47
2018-12-18T04:57:57.069Z,25.40
2018-12-18T04:59:02.618Z,24.70
2018-12-18T05:00:09.946Z,24.53
2018-12-18T05:01:15.395Z,23.17
2018-12-18T05:02:20.834Z,21.77
2018-12-18T05:03:26.362Z,24.37
2018-12-18T05:04:31.822Z,21.50
2018-12-18T05:05:37.261Z,20.37
2018-12-18T05:06:42.747Z,20.60
2018-12-18T05:07:48.256Z,23.50
2018-12-18T05:08:53.832Z,22.57
2018-12-18T05:09:59.263Z,23.63
2018-12-18T05:11:04.759Z,21.27
2018-12-18T05:12:10.241Z,21.10
2018-12-18T05:13:15.721Z,22.53
2018-12-18T05:14:21.142Z,21.33
2018-12-18T05:15:26.720Z,21.40
2018-12-18T05:16:32.230Z,22.30
2018-12-18T05:17:37.692Z,21.03
2018-12-18T05:18:43.231Z,21.30
2018-12-18T05:19:48.718Z,20.53
2018-12-18T05:20:54.251Z,22.80
2018-12-18T05:21:59.768Z,21.60
2018-12-18T05:23:05.307Z,21.33
2018-12-18T05:24:10.848Z,19.77
2018-12-18T05:25:16.266Z,19.27
2018-12-18T05:26:22.861Z,21.17
2018-12-18T05:27:28.387Z,19.47
2018-12-18T05:28:33.734Z,19.80
2018-12-18T05:29:39.146Z,18.57
2018-12-18T05:30:44.568Z,19.80
2018-12-18T05:31:50.145Z,17.20
2018-12-18T05:32:55.679Z,19.23
2018-12-18T05:34:01.243Z,17.40
2018-12-18T05:35:06.780Z,18.40
2018-12-18T05:36:12.418Z,18.47
2018-12-18T05:37:17.872Z,19.80
2018-12-18T05:38:23.570Z,19.40
2018-12-18T05:39:29.256Z,17.57
2018-12-18T05:40:34.866Z,18.30
2018-12-18T05:41:40.415Z,18.00
2018-12-18T05:42:45.960Z,16.67
2018-12-18T05:43:51.480Z,17.63
2018-12-18T05:44:56.876Z,19.90
2018-12-18T05:46:02.395Z,19.63
2018-12-18T05:47:07.908Z,18.53
2018-12-18T05:48:13.611Z,17.77
2018-12-18T05:49:19.175Z,19.97
2018-12-18T05:50:24.846Z,20.10
2018-12-18T05:51:30.296Z,17.83
2018-12-18T05:52:36.040Z,20.07
2018-12-18T05:53:41.672Z,17.60
2018-12-18T05:54:47.165Z,17.63
2018-12-18T05:55:52.720Z,17.83
2018-12-18T05:56:58.334Z,15.43
2018-12-18T05:58:03.894Z,16.70
2018-12-18T05:59:09.423Z,16.50
2018-12-18T06:00:14.851Z,15.90
2018-12-18T06:01:20.265Z,17.43
2018-12-18T06:02:25.648Z,16.37
2018-12-18T06:03:31.079Z,17.33
2018-12-18T06:04:36.637Z,15.30
2018-12-18T06:05:42.143Z,15.63
2018-12-18T06:06:47.720Z,15.50
2018-12-18T06:07:53.267Z,16.50
2018-12-18T06:08:58.699Z,16.97
2018-12-18T06:10:04.683Z,17.20
2018-12-18T06:11:10.394Z,17.33
2018-12-18T06:12:15.834Z,14.53
2018-12-18T06:13:21.371Z,16.63
2018-12-18T06:14:26.882Z,14.70
2018-12-18T06:15:32.342Z,16.33
2018-12-18T06:16:37.993Z,16.47
2018-12-18T06:17:43.443Z,14.37
2018-12-18T06:18:48.939Z,15.50
2018-12-18T06:19:54.394Z,15.83
2018-12-18T06:20:59.864Z,14.80
2018-12-18T06:22:05.379Z,13.63
2018-12-18T06:23:10.834Z,14.50
2018-12-18T06:24:16.244Z,15.80
2018-12-18T06:25:21.661Z,15.43
2018-12-18T06:26:27.246Z,15.80
2018-12-18T06:27:32.742Z,15.03
2018-12-18T06:28:38.322Z,15.50
2018-12-18T06:29:43.923Z,14.90
2018-12-18T06:30:49.412Z,15.00
2018-12-18T06:31:55.401Z,14.70
2018-12-18T06:33:01.034Z,14.40
2018-12-18T06:34:06.547Z,14.47
2018-12-18T06:35:12.011Z,14.83
2018-12-18T06:36:18.039Z,14.70
2018-12-18T06:37:23.590Z,15.17
2018-12-18T06:38:29.235Z,14.57
2018-12-18T06:39:34.864Z,14.93
2018-12-18T06:40:40.401Z,16.60
2018-12-18T06:41:45.826Z,13.87
2018-12-18T06:42:51.297Z,15.17
2018-12-18T06:43:56.819Z,13.33
2018-12-18T06:45:02.597Z,16.23
2018-12-18T06:46:08.044Z,13.67
2018-12-18T06:47:13.540Z,14.60
2018-12-18T06:48:18.971Z,15.77
2018-12-18T06:49:24.464Z,15.90
2018-12-18T06:50:29.897Z,14.20
2018-12-18T06:51:35.440Z,16.77
2018-12-18T06:52:40.897Z,15.53
2018-12-18T06:53:46.659Z,13.40
2018-12-18T06:54:52.134Z,14.70
2018-12-18T06:55:57.587Z,16.57
2018-12-18T06:57:03.023Z,15.53
2018-12-18T06:58:08.515Z,15.57
2018-12-18T06:59:14.195Z,15.33
2018-12-18T07:00:19.620Z,15.90
2018-12-18T07:01:25.085Z,15.13
2018-12-18T07:02:30.747Z,13.83
2018-12-18T07:03:36.383Z,14.77
2018-12-18T07:04:42.066Z,13.77
2018-12-18T07:05:47.555Z,15.03
2018-12-18T07:06:53.100Z,12.20
2018-12-18T07:07:58.589Z,14.77
2018-12-18T07:09:06.473Z,15.17
2018-12-18T07:10:12.022Z,15.03
2018-12-18T07:11:17.782Z,13.90
2018-12-18T07:12:23.515Z,13.60
2018-12-18T07:13:29.018Z,14.40
2018-12-18T07:14:34.477Z,13.33
2018-12-18T07:15:40.037Z,14.13
2018-12-18T07:16:45.472Z,14.87
2018-12-18T07:17:51.150Z,13.50
2018-12-18T07:18:56.627Z,13.60
2018-12-18T07:20:02.127Z,13.30
2018-12-18T07:21:07.637Z,14.37
2018-12-18T07:22:13.295Z,11.67
2018-12-18T07:23:19.031Z,12.27
2018-12-18T07:24:24.632Z,12.83
2018-12-18T07:25:30.128Z,13.40
2018-12-18T07:26:35.611Z,12.30
2018-12-18T07:27:41.084Z,12.23
2018-12-18T07:28:46.471Z,12.73
2018-12-18T07:29:52.284Z,12.00
2018-12-18T07:30:57.798Z,12.90
2018-12-18T07:32:03.326Z,12.50
2018-12-18T07:33:09.022Z,11.68
2018-12-18T07:34:14.549Z,13.07
2018-12-18T07:35:23.246Z,12.10
2018-12-18T07:36:28.112Z,12.07
2018-12-18T07:37:33.610Z,12.30
2018-12-18T07:38:39.043Z,11.73
2018-12-18T07:39:44.584Z,12.43
2018-12-18T07:40:50.355Z,13.90
2018-12-18T07:41:56.006Z,12.33
2018-12-18T07:43:01.520Z,11.60
2018-12-18T07:44:07.058Z,12.77
2018-12-18T07:45:12.511Z,11.90
2018-12-18T07:46:18.015Z,11.10
2018-12-18T07:47:23.586Z,12.50
2018-12-18T07:48:29.058Z,12.23
2018-12-18T07:49:34.657Z,12.23
2018-12-18T07:50:40.337Z,11.60
2018-12-18T07:51:46.084Z,12.20
2018-12-18T07:52:51.509Z,13.40
2018-12-18T07:53:56.955Z,11.00
2018-12-18T07:55:02.594Z,12.20
2018-12-18T07:56:08.022Z,11.63
2018-12-18T07:57:13.588Z,12.37
2018-12-18T07:58:19.303Z,11.80
2018-12-18T07:59:24.805Z,11.80
2018-12-18T08:00:30.228Z,12.77
2018-12-18T08:01:35.776Z,11.60
2018-12-18T08:02:41.299Z,11.97
2018-12-18T08:03:47.024Z,11.77
2018-12-18T08:04:52.605Z,11.27
2018-12-18T08:05:58.111Z,11.40
2018-12-18T08:07:03.574Z,11.50
2018-12-18T08:08:08.978Z,11.97
2018-12-18T08:09:14.643Z,12.73
2018-12-18T08:10:20.214Z,11.93
2018-12-18T08:11:25.754Z,11.03
2018-12-18T08:12:31.329Z,10.30
2018-12-18T08:13:36.841Z,12.63
2018-12-18T08:14:42.458Z,12.90
2018-12-18T08:15:48.007Z,12.30
2018-12-18T08:16:53.543Z,13.10
2018-12-18T08:17:59.093Z,11.67
2018-12-18T08:19:04.651Z,14.30
2018-12-18T08:20:10.259Z,12.65
2018-12-18T08:21:15.884Z,13.20
2018-12-18T08:22:21.482Z,12.87
2018-12-18T08:23:27.002Z,12.63
2018-12-18T08:24:32.452Z,12.97
2018-12-18T08:25:38.201Z,11.90
2018-12-18T08:26:43.725Z,11.83
2018-12-18T08:27:49.183Z,13.97
2018-12-18T08:28:54.765Z,12.83
2018-12-18T08:30:00.379Z,13.70
2018-12-18T08:31:06.279Z,12.83
2018-12-18T08:32:11.929Z,12.50
2018-12-18T08:33:17.487Z,13.67
2018-12-18T08:34:22.975Z,11.27
2018-12-18T08:35:28.336Z,13.60
2018-12-18T08:36:33.855Z,12.20
2018-12-18T08:37:39.358Z,13.57
2018-12-18T08:38:44.907Z,12.73
2018-12-18T08:39:50.297Z,14.20
2018-12-18T08:40:55.911Z,13.53
2018-12-18T08:42:01.460Z,12.47
2018-12-18T08:43:06.938Z,14.40
2018-12-18T08:44:12.473Z,15.00
2018-12-18T08:45:17.927Z,13.20
2018-12-18T08:46:23.380Z,15.27
2018-12-18T08:47:28.771Z,15.03
2018-12-18T08:48:34.746Z,15.57
2018-12-18T08:49:40.185Z,13.23
2018-12-18T08:50:45.778Z,13.33
2018-12-18T08:51:51.208Z,13.53
2018-12-18T08:52:56.628Z,14.70
2018-12-18T08:54:02.068Z,12.50
2018-12-18T08:55:08.313Z,13.90
2018-12-18T08:56:13.887Z,15.40
2018-12-18T08:57:19.390Z,15.33
2018-12-18T08:58:24.819Z,13.27
2018-12-18T08:59:30.272Z,13.00
2018-12-18T09:00:35.928Z,13.23
2018-12-18T09:01:41.558Z,12.43
2018-12-18T09:02:47.136Z,14.53
2018-12-18T09:03:52.562Z,13.23
2018-12-18T09:04:58.080Z,13.67
2018-12-18T09:06:03.547Z,11.90
2018-12-18T09:07:09.150Z,12.30
2018-12-18T09:08:14.736Z,13.30
2018-12-18T09:09:20.263Z,13.23
2018-12-18T09:10:25.845Z,12.30
2018-12-18T09:11:31.220Z,11.97
2018-12-18T09:12:36.799Z,11.30
2018-12-18T09:13:42.170Z,12.03
2018-12-18T09:14:53.129Z,12.20
2018-12-18T09:15:59.077Z,11.07
2018-12-18T09:18:31.307Z,11.50
2018-12-18T09:19:36.992Z,10.77
2018-12-18T09:20:42.644Z,11.60
2018-12-18T09:21:48.168Z,11.07
2018-12-18T09:22:53.748Z,11.17
2018-12-18T09:23:59.370Z,10.57
2018-12-18T09:25:05.951Z,10.70
2018-12-18T09:26:11.661Z,10.00
2018-12-18T09:27:17.080Z,11.47
2018-12-18T09:28:22.519Z,11.50
2018-12-18T09:29:28.192Z,8.80
2018-12-18T09:30:33.603Z,10.17
2018-12-18T09:31:39.127Z,9.80
2018-12-18T09:32:44.586Z,10.20
2018-12-18T09:33:50.041Z,9.37
2018-12-18T09:34:55.696Z,8.57
2018-12-18T09:36:01.120Z,10.10
2018-12-18T09:37:06.759Z,8.23
2018-12-18T09:38:17.459Z,9.57
2018-12-18T09:40:52.254Z,9.43
2018-12-18T09:42:03.002Z,8.63
2018-12-18T09:43:13.601Z,10.10
2018-12-18T09:44:19.378Z,8.90
2018-12-18T09:45:24.981Z,9.60
2018-12-18T09:46:31.292Z,8.60
2018-12-18T09:47:36.971Z,8.00
2018-12-18T09:48:42.612Z,7.70
2018-12-18T09:49:48.082Z,8.30
2018-12-18T09:50:53.490Z,8.97
2018-12-18T09:51:58.979Z,9.03
2018-12-18T09:53:04.884Z,8.00
2018-12-18T09:54:10.498Z,8.10
2018-12-18T09:55:16.029Z,8.57
2018-12-18T09:56:21.478Z,8.73
2018-12-18T09:57:32.242Z,8.33
2018-12-18T09:58:37.789Z,8.23
2018-12-18T09:59:43.369Z,9.10
2018-12-18T10:00:48.810Z,9.03
2018-12-18T10:01:54.184Z,8.10
2018-12-18T10:02:59.570Z,9.47
2018-12-18T10:04:05.218Z,7.63
2018-12-18T10:05:10.898Z,7.37
2018-12-18T10:06:16.431Z,8.97
2018-12-18T10:07:21.936Z,9.33
2018-12-18T10:08:27.431Z,8.00
2018-12-18T10:09:33.230Z,8.57
2018-12-18T10:10:38.721Z,8.43
2018-12-18T10:11:44.139Z,7.40
2018-12-18T10:12:56.586Z,7.50
2018-12-18T10:14:02.172Z,7.70
2018-12-18T10:15:08.461Z,8.67
2018-12-18T10:16:14.039Z,8.63
2018-12-18T10:17:19.877Z,8.20
2018-12-18T10:18:26.414Z,7.40
2018-12-18T10:19:31.924Z,6.90
2018-12-18T10:20:37.480Z,8.97
2018-12-18T10:21:43.018Z,7.07
2018-12-18T10:22:48.901Z,7.93
2018-12-18T10:23:54.398Z,8.37
2018-12-18T10:24:59.900Z,6.93
2018-12-18T10:26:05.502Z,8.30
2018-12-18T10:27:11.035Z,8.20
2018-12-18T10:28:16.802Z,6.97
2018-12-18T10:29:22.403Z,7.03
2018-12-18T10:30:28.131Z,8.17
2018-12-18T10:31:33.698Z,7.90
2018-12-18T10:32:39.139Z,6.17
2018-12-18T10:33:44.895Z,7.30
2018-12-18T10:34:50.383Z,7.53
2018-12-18T10:35:55.922Z,8.83
2018-12-18T10:37:01.414Z,7.20
2018-12-18T10:38:07.316Z,7.57
2018-12-18T10:39:12.907Z,6.90
2018-12-18T10:40:18.464Z,7.17
2018-12-18T10:41:24.060Z,6.97
2018-12-18T10:42:29.744Z,6.43
2018-12-18T10:43:36.108Z,6.83
2018-12-18T10:44:41.780Z,6.57
2018-12-18T10:45:47.216Z,7.07
2018-12-18T10:46:52.738Z,6.73
2018-12-18T10:47:58.274Z,6.80
2018-12-18T10:49:03.965Z,6.53
2018-12-18T10:50:09.624Z,6.63
2018-12-18T10:51:14.998Z,6.40
2018-12-18T10:52:20.450Z,5.60
2018-12-18T10:53:25.884Z,6.40
2018-12-18T10:54:31.437Z,6.30
2018-12-18T10:55:37.070Z,6.53
2018-12-18T10:56:42.748Z,7.77
2018-12-18T10:57:48.300Z,6.13
2018-12-18T10:58:53.799Z,5.43
2018-12-18T10:59:59.262Z,6.07
2018-12-18T11:01:10.335Z,5.20
2018-12-18T11:02:15.754Z,5.40
2018-12-18T11:03:21.127Z,6.27
2018-12-18T11:04:26.600Z,5.50
2018-12-18T11:05:32.178Z,4.73
2018-12-18T11:06:37.889Z,6.07
2018-12-18T11:07:43.481Z,5.10
2018-12-18T11:08:49.199Z,4.57
2018-12-18T11:09:54.961Z,5.20
2018-12-18T11:11:01.083Z,5.07
2018-12-18T11:12:06.552Z,4.93
2018-12-18T11:13:17.114Z,5.80
2018-12-18T11:14:22.623Z,5.30
2018-12-18T11:15:28.192Z,4.80
2018-12-18T11:16:37.327Z,5.13
2018-12-18T11:17:41.356Z,5.23
2018-12-18T11:18:46.909Z,5.10
2018-12-18T11:19:52.572Z,5.33
2018-12-18T11:20:58.142Z,4.60
2018-12-18T11:22:03.861Z,4.63
2018-12-18T11:23:09.455Z,5.40
2018-12-18T11:24:15.611Z,5.60
2018-12-18T11:25:21.207Z,7.00
2018-12-18T11:26:26.706Z,5.53
2018-12-18T11:27:32.238Z,4.70
2018-12-18T11:28:37.957Z,5.87
2018-12-18T11:29:43.508Z,5.50
2018-12-18T11:30:49.020Z,5.63
2018-12-18T11:31:54.530Z,5.10
2018-12-18T11:33:00.031Z,5.00
2018-12-18T11:34:05.664Z,5.20
2018-12-18T11:35:11.215Z,6.00
2018-12-18T11:36:16.996Z,5.40
2018-12-18T11:37:22.395Z,5.60
2018-12-18T11:38:27.804Z,5.20
2018-12-18T11:39:33.320Z,6.33
2018-12-18T11:40:38.835Z,4.80
2018-12-18T11:41:44.294Z,5.73
2018-12-18T11:42:49.949Z,4.80
2018-12-18T11:43:55.458Z,4.47
2018-12-18T11:45:00.896Z,5.23
2018-12-18T11:46:06.516Z,4.93
2018-12-18T11:47:12.054Z,5.00
2018-12-18T11:48:17.569Z,5.73
2018-12-18T11:49:23.067Z,5.20
2018-12-18T11:50:28.536Z,5.30
2018-12-18T11:51:34.052Z,4.40
2018-12-18T11:52:39.508Z,4.53
2018-12-18T11:53:45.022Z,4.47
2018-12-18T11:54:50.553Z,4.77
2018-12-18T11:55:56.306Z,5.10
2018-12-18T11:57:01.696Z,4.77
2018-12-18T11:58:07.252Z,4.67
2018-12-18T11:59:12.752Z,4.50
2018-12-18T12:00:18.322Z,4.80
2018-12-18T12:01:23.943Z,5.67
2018-12-18T12:02:29.380Z,4.27
2018-12-18T12:03:35.126Z,4.53
2018-12-18T12:04:40.577Z,3.90
2018-12-18T12:05:46.190Z,5.40
2018-12-18T12:06:51.762Z,4.80
2018-12-18T12:07:57.111Z,3.90
2018-12-18T12:09:02.638Z,3.87
2018-12-18T12:10:08.595Z,4.70
2018-12-18T12:11:14.185Z,4.77
2018-12-18T12:12:19.769Z,4.47
2018-12-18T12:13:25.318Z,4.43
2018-12-18T12:14:30.872Z,4.27
2018-12-18T12:15:37.136Z,5.07
2018-12-18T12:16:42.685Z,4.27
2018-12-18T12:17:48.420Z,4.73
2018-12-18T12:18:54.016Z,4.23
2018-12-18T12:19:59.468Z,4.27
2018-12-18T12:21:04.984Z,4.60
2018-12-18T12:22:10.720Z,4.10
2018-12-18T12:23:16.195Z,3.70
2018-12-18T12:24:21.782Z,4.43
2018-12-18T12:25:27.289Z,4.60
2018-12-18T12:26:34.363Z,4.13
2018-12-18T12:27:45.079Z,4.90
2018-12-18T12:28:50.587Z,4.00
2018-12-18T12:29:56.102Z,4.20
2018-12-18T12:31:01.531Z,4.70
2018-12-18T12:32:07.130Z,3.60
2018-12-18T12:33:12.685Z,4.13
2018-12-18T12:34:18.078Z,4.00
2018-12-18T12:35:23.532Z,4.20
2018-12-18T12:36:29.828Z,4.00
2018-12-18T12:37:35.602Z,4.73
2018-12-18T12:38:41.071Z,4.90
2018-12-18T12:39:46.479Z,3.93
2018-12-18T12:40:51.925Z,3.83
2018-12-18T12:41:57.362Z,4.50
2018-12-18T12:43:02.814Z,3.73
2018-12-18T12:44:08.290Z,4.40
2018-12-18T12:45:14.398Z,4.17
2018-12-18T12:46:19.831Z,4.07
2018-12-18T12:47:25.736Z,5.20
2018-12-18T12:48:36.503Z,4.70
2018-12-18T12:49:44.922Z,3.80
2018-12-18T12:50:50.640Z,4.30
2018-12-18T12:51:56.233Z,4.43
2018-12-18T12:53:01.895Z,4.00
2018-12-18T12:54:08.052Z,4.60
2018-12-18T12:55:13.510Z,4.57
2018-12-18T12:56:19.064Z,4.07
2018-12-18T12:57:24.561Z,4.33
2018-12-18T12:58:30.270Z,4.13
2018-12-18T12:59:35.714Z,3.50
2018-12-18T13:00:41.300Z,4.33
2018-12-18T13:01:46.967Z,4.70
2018-12-18T13:02:52.522Z,4.27
2018-12-18T13:03:58.139Z,4.43
2018-12-18T13:05:03.683Z,4.50
2018-12-18T13:06:09.141Z,4.50
2018-12-18T13:07:14.575Z,4.57
2018-12-18T13:08:20.083Z,3.70
2018-12-18T13:09:25.601Z,4.43
2018-12-18T13:10:31.083Z,3.60
2018-12-18T13:11:36.518Z,3.90
2018-12-18T13:12:42.340Z,4.80
2018-12-18T13:13:47.840Z,3.67
2018-12-18T13:14:53.364Z,4.10
2018-12-18T13:15:58.974Z,4.33
2018-12-18T13:17:04.590Z,4.00
2018-12-18T13:18:10.188Z,3.93
2018-12-18T13:19:15.607Z,3.50
2018-12-18T13:20:21.072Z,4.67
2018-12-18T13:21:26.584Z,4.17
2018-12-18T13:22:32.050Z,4.77
2018-12-18T13:23:38.224Z,4.73
2018-12-18T13:24:43.767Z,4.73
2018-12-18T13:25:49.204Z,4.10
2018-12-18T13:26:54.723Z,4.23
2018-12-18T13:28:00.259Z,4.47
2018-12-18T13:29:05.739Z,4.40
2018-12-18T13:30:11.246Z,5.20
2018-12-18T13:31:16.723Z,6.33
2018-12-18T13:32:22.263Z,5.87
2018-12-18T13:33:27.717Z,4.50
2018-12-18T13:34:33.220Z,8.07
2018-12-18T13:35:38.680Z,7.03
2018-12-18T13:36:44.363Z,7.23
2018-12-18T13:37:49.783Z,6.40
2018-12-18T13:38:55.288Z,5.50
2018-12-18T13:40:00.706Z,6.23
2018-12-18T13:41:06.376Z,6.23
2018-12-18T13:42:11.783Z,5.83
2018-12-18T13:43:17.271Z,6.37
2018-12-18T13:44:22.656Z,6.27
2018-12-18T13:45:28.195Z,5.37
2018-12-18T13:46:33.755Z,4.47
2018-12-18T13:47:39.183Z,4.03
2018-12-18T13:48:44.652Z,4.27
2018-12-18T13:49:50.092Z,4.30
2018-12-18T13:50:55.530Z,4.00
2018-12-18T13:52:01.035Z,3.80
2018-12-18T13:53:06.495Z,4.77
2018-12-18T13:54:11.963Z,4.37
2018-12-18T13:55:17.379Z,4.40
2018-12-18T13:56:22.810Z,3.93
2018-12-18T13:57:28.495Z,4.10
2018-12-18T13:58:33.899Z,4.77
2018-12-18T13:59:39.402Z,4.40
2018-12-18T14:00:44.921Z,4.67
2018-12-18T14:01:50.373Z,3.80
2018-12-18T14:02:56.079Z,4.47
2018-12-18T14:04:02.564Z,4.80
2018-12-18T14:05:08.207Z,4.43
2018-12-18T14:06:13.648Z,4.20
2018-12-18T14:07:19.119Z,4.20
2018-12-18T14:08:24.836Z,4.03
2018-12-18T14:09:30.275Z,4.30
2018-12-18T14:10:35.698Z,4.17
2018-12-18T14:11:41.183Z,4.90
2018-12-18T14:14:07.318Z,5.93
2018-12-18T14:15:12.890Z,6.00
2018-12-18T14:16:18.283Z,4.30
2018-12-18T14:17:23.786Z,4.50
2018-12-18T14:18:29.261Z,3.43
2018-12-18T14:19:34.927Z,5.47
2018-12-18T14:20:40.571Z,6.40
2018-12-18T14:21:46.050Z,9.93
2018-12-18T14:22:52.135Z,6.37
2018-12-18T14:23:57.651Z,4.40